Time;durP1;ratioP1;P1;durP2;ratioP2;P2;SDS_P1;SDS_P2;PMS_P1;PMS_P2;Temp;Humidity;BMP_temperature;BMP_pressure;BME280_temperature;BME280_humidity;BME280_pressure;Samples;Min_cycle;Max_cycle;Signal;HPM_P1;HPM_P2
2023/06/16 00:01:04;;;;;;;0.68;0.68;;;;;;;17.16;100.00;99656.16;4990873;28;20026;-87
2023/06/16 00:03:34;;;;;;;0.52;0.30;;;;;;;17.13;100.00;99665.53;4995611;28;20034;-88
2023/06/16 00:06:12;;;;;;;1.33;1.10;;;;;;;17.15;100.00;99663.00;4975171;28;20512;-88
2023/06/16 00:08:45;;;;;;;0.70;0.70;;;;;;;17.09;100.00;99657.34;5007389;28;20465;-88
2023/06/16 00:11:12;;;;;;;1.08;0.98;;;;;;;16.98;100.00;99670.44;4998381;28;20022;-88
2023/06/16 00:13:37;;;;;;;0.88;0.73;;;;;;;16.92;100.00;99647.19;5006011;28;20052;-88
2023/06/16 00:16:03;;;;;;;0.43;0.43;;;;;;;16.98;100.00;99654.41;4994504;28;20042;-88
2023/06/16 00:18:29;;;;;;;0.70;0.63;;;;;;;16.93;100.00;99648.72;4992332;28;20441;-88
2023/06/16 00:20:57;;;;;;;0.68;0.68;;;;;;;16.98;100.00;99646.00;5002965;28;20486;-88
2023/06/16 00:23:23;;;;;;;0.75;0.68;;;;;;;16.90;100.00;99646.91;4990742;28;20032;-88
2023/06/16 00:25:50;;;;;;;0.47;0.47;;;;;;;16.87;100.00;99643.03;4994099;28;20414;-88
2023/06/16 00:28:16;;;;;;;1.20;0.98;;;;;;;16.84;100.00;99637.66;5007656;28;20457;-88
2023/06/16 00:30:43;;;;;;;0.88;0.82;;;;;;;16.79;100.00;99648.28;4993258;28;20026;-88
2023/06/16 00:33:10;;;;;;;1.23;0.60;;;;;;;16.83;100.00;99652.91;4989776;28;20072;-88
2023/06/16 00:35:35;;;;;;;1.00;0.77;;;;;;;16.77;100.00;99645.22;4990600;28;20046;-88
2023/06/16 00:38:01;;;;;;;0.50;0.50;;;;;;;16.76;100.00;99643.69;5006570;28;20122;-87
2023/06/16 00:40:27;;;;;;;0.45;0.45;;;;;;;16.69;100.00;99643.31;5005942;28;20509;-88
2023/06/16 00:42:57;;;;;;;1.25;0.98;;;;;;;16.70;100.00;99640.00;4974096;28;20044;-87
2023/06/16 00:45:23;;;;;;;0.82;0.63;;;;;;;16.61;100.00;99631.00;5011942;28;20564;-88
2023/06/16 00:47:51;;;;;;;0.43;0.30;;;;;;;16.51;100.00;99626.72;5013904;28;20125;-87
2023/06/16 00:50:18;;;;;;;1.08;0.63;;;;;;;16.56;100.00;99648.44;5005295;28;20116;-87
2023/06/16 00:52:44;;;;;;;0.73;0.68;;;;;;;16.61;100.00;99640.16;4976747;28;20034;-87
2023/06/16 00:55:11;;;;;;;3.20;0.70;;;;;;;16.58;100.00;99643.16;4985008;28;20053;-87
2023/06/16 00:57:40;;;;;;;1.10;0.73;;;;;;;16.59;100.00;99645.47;4996353;28;20115;-88
2023/06/16 01:00:11;;;;;;;0.98;0.77;;;;;;;16.54;100.00;99643.31;5004600;28;20068;-88
2023/06/16 01:02:37;;;;;;;0.40;0.40;;;;;;;16.47;100.00;99638.13;4993206;28;20413;-87
2023/06/16 01:05:02;;;;;;;1.00;0.73;;;;;;;16.48;100.00;99648.09;5003847;28;20112;-87
2023/06/16 01:07:59;;;;;;;0.30;0.28;;;;;;;16.45;100.00;99646.25;4991998;28;20900;-87
2023/06/16 01:10:37;;;;;;;1.25;1.17;;;;;;;16.36;100.00;99643.56;4969786;28;20049;-87
2023/06/16 01:13:13;;;;;;;1.25;0.70;;;;;;;16.24;100.00;99633.47;5004527;28;20940;-87
2023/06/16 01:15:41;;;;;;;0.65;0.63;;;;;;;16.29;100.00;99644.75;4997289;28;20034;-88
2023/06/16 01:18:08;;;;;;;0.65;0.38;;;;;;;16.31;100.00;99653.44;5000548;28;20112;-87
2023/06/16 01:20:51;;;;;;;1.17;0.95;;;;;;;16.25;100.00;99654.59;4996406;28;20425;-87
2023/06/16 01:23:56;;;;;;;0.88;0.73;;;;;;;16.22;100.00;99650.72;4993876;28;20030;-88
2023/06/16 01:26:22;;;;;;;0.65;0.52;;;;;;;16.07;100.00;99621.22;5000438;28;20044;-88
2023/06/16 01:28:49;;;;;;;0.75;0.65;;;;;;;16.07;100.00;99624.03;4994038;28;20133;-87
2023/06/16 01:31:17;;;;;;;3.17;0.55;;;;;;;15.99;100.00;99614.50;4978178;28;20028;-88
2023/06/16 01:33:44;;;;;;;0.50;0.50;;;;;;;16.06;100.00;99633.66;5011356;28;20490;-88
2023/06/16 01:36:10;;;;;;;0.88;0.85;;;;;;;16.10;100.00;99642.63;5009741;28;21890;-87
2023/06/16 01:38:36;;;;;;;0.95;0.95;;;;;;;16.03;100.00;99631.84;5009311;28;20040;-87
2023/06/16 01:41:03;;;;;;;0.65;0.65;;;;;;;15.99;100.00;99629.25;5005383;28;20049;-86
2023/06/16 01:43:29;;;;;;;0.85;0.82;;;;;;;16.00;100.00;99638.41;4994792;28;20501;-86
2023/06/16 01:45:58;;;;;;;0.77;0.60;;;;;;;15.93;100.00;99634.00;4990143;28;20042;-86
2023/06/16 01:48:24;;;;;;;2.50;1.15;;;;;;;15.86;100.00;99628.78;4991722;28;20117;-87
2023/06/16 01:50:50;;;;;;;0.15;0.15;;;;;;;15.89;100.00;99629.84;4993894;28;20125;-87
2023/06/16 01:53:16;;;;;;;0.45;0.45;;;;;;;15.88;100.00;99634.66;4995176;28;20034;-88
2023/06/16 01:55:51;;;;;;;0.43;0.43;;;;;;;15.74;100.00;99619.44;5010565;28;20100;-88
2023/06/16 01:58:18;;;;;;;0.45;0.45;;;;;;;15.76;100.00;99619.72;4992177;28;20073;-88
2023/06/16 02:00:49;;;;;;;0.60;0.60;;;;;;;15.74;100.00;99625.03;5009473;28;20091;-87
2023/06/16 02:03:29;;;;;;;2.40;1.83;;;;;;;15.68;100.00;99618.56;4991985;28;20036;-87
2023/06/16 02:05:58;;;;;;;1.52;0.80;;;;;;;15.57;100.00;99607.16;4976455;28;20442;-87
2023/06/16 02:08:27;;;;;;;0.60;0.57;;;;;;;15.60;100.00;99623.00;4991702;28;20053;-88
2023/06/16 02:10:54;;;;;;;0.52;0.52;;;;;;;15.54;100.00;99613.72;4992141;28;20529;-87
2023/06/16 02:13:20;;;;;;;1.33;1.00;;;;;;;15.56;100.00;99621.66;4997593;28;20034;-87
2023/06/16 02:15:46;;;;;;;0.70;0.70;;;;;;;15.47;100.00;99608.50;4991169;28;20038;-87
2023/06/16 02:18:12;;;;;;;0.30;0.30;;;;;;;15.48;100.00;99607.25;5012888;28;20103;-88
2023/06/16 02:20:38;;;;;;;0.45;0.45;;;;;;;15.53;100.00;99606.59;5007913;28;20036;-87
2023/06/16 02:23:04;;;;;;;0.47;0.47;;;;;;;15.51;100.00;99608.34;4996919;28;20045;-87
2023/06/16 02:25:30;;;;;;;1.52;1.42;;;;;;;15.44;100.00;99603.88;4989128;28;20084;-87
2023/06/16 02:27:55;;;;;;;1.10;0.98;;;;;;;15.50;100.00;99601.97;5007997;28;20520;-88
2023/06/16 02:30:21;;;;;;;1.25;1.08;;;;;;;15.47;100.00;99616.88;5007706;28;20125;-88
2023/06/16 02:32:48;;;;;;;3.63;1.15;;;;;;;15.37;100.00;99605.00;5009772;28;20040;-88
2023/06/16 02:35:14;;;;;;;0.95;0.93;;;;;;;15.45;100.00;99613.78;5008642;28;20174;-87
2023/06/16 02:37:41;;;;;;;0.77;0.77;;;;;;;15.44;100.00;99609.47;4992171;28;20044;-87
2023/06/16 02:40:08;;;;;;;0.98;0.95;;;;;;;15.40;100.00;99606.88;4991381;28;20128;-88
2023/06/16 02:42:34;;;;;;;1.02;1.00;;;;;;;15.44;100.00;99612.25;4975630;28;20084;-88
2023/06/16 02:45:00;;;;;;;1.48;0.90;;;;;;;15.36;100.00;99602.72;4991647;28;20064;-87
2023/06/16 02:47:26;;;;;;;0.65;0.65;;;;;;;15.27;100.00;99597.97;4992174;28;20525;-87
2023/06/16 02:49:54;;;;;;;0.90;0.90;;;;;;;15.29;100.00;99606.63;5009496;28;20026;-88
2023/06/16 02:52:20;;;;;;;1.27;1.17;;;;;;;15.25;100.00;99608.84;5007803;28;20509;-87
2023/06/16 02:54:46;;;;;;;1.80;0.82;;;;;;;15.29;100.00;99606.63;4992595;28;20038;-87
2023/06/16 02:57:17;;;;;;;1.13;0.85;;;;;;;15.27;100.00;99616.75;5007612;28;20041;-87
2023/06/16 02:59:47;;;;;;;1.35;1.13;;;;;;;15.27;100.00;99611.94;5008021;28;20034;-87
2023/06/16 03:02:13;;;;;;;0.98;0.80;;;;;;;15.23;100.00;99600.19;5006337;28;20042;-87
2023/06/16 03:04:55;;;;;;;1.02;0.95;;;;;;;15.20;100.00;99600.38;5012020;28;20038;-87
2023/06/16 03:07:24;;;;;;;1.00;0.98;;;;;;;15.18;100.00;99608.44;4990463;28;20041;-87
2023/06/16 03:09:50;;;;;;;1.73;1.15;;;;;;;15.19;100.00;99610.00;5010043;28;20121;-88
2023/06/16 03:12:18;;;;;;;1.50;1.13;;;;;;;15.14;100.00;99611.44;5008651;28;20432;-88
2023/06/16 03:14:53;;;;;;;0.93;0.93;;;;;;;15.15;100.00;99612.22;5009678;28;20030;-88
2023/06/16 03:17:20;;;;;;;0.50;0.50;;;;;;;15.10;100.00;99602.47;4994020;28;20030;-88
2023/06/16 03:19:50;;;;;;;0.57;0.57;;;;;;;15.12;100.00;99615.97;5010240;28;20084;-87
2023/06/16 03:22:21;;;;;;;1.02;0.90;;;;;;;15.06;100.00;99615.84;4992486;28;20146;-88
2023/06/16 03:24:47;;;;;;;1.25;0.50;;;;;;;15.05;100.00;99617.09;5008847;28;20029;-88
2023/06/16 03:27:15;;;;;;;1.08;0.68;;;;;;;15.01;100.00;99616.50;4976818;28;20243;-88
2023/06/16 03:30:00;;;;;;;1.27;0.65;;;;;;;14.98;100.00;99611.09;5002790;28;20037;-88
2023/06/16 03:32:31;;;;;;;0.73;0.73;;;;;;;14.98;100.00;99613.91;4981421;28;20017;-88
2023/06/16 03:34:57;;;;;;;1.95;1.70;;;;;;;14.99;100.00;99612.66;5010788;28;20389;-88
2023/06/16 03:37:23;;;;;;;0.73;0.55;;;;;;;14.95;100.00;99604.47;4988289;28;20037;-88
2023/06/16 03:39:49;;;;;;;0.25;0.25;;;;;;;15.02;100.00;99617.28;5009969;28;20137;-87
2023/06/16 03:42:15;;;;;;;0.38;0.38;;;;;;;15.05;100.00;99616.31;5006768;28;20037;-87
2023/06/16 03:44:41;;;;;;;1.40;1.30;;;;;;;15.05;100.00;99613.53;5007031;28;20034;-87
2023/06/16 03:47:06;;;;;;;0.38;0.38;;;;;;;14.99;100.00;99601.47;4990129;28;20065;-87
2023/06/16 03:49:33;;;;;;;0.20;0.20;;;;;;;14.93;100.00;99599.34;5006180;28;20029;-87
2023/06/16 03:51:59;;;;;;;0.73;0.63;;;;;;;15.06;100.00;99606.69;4990687;28;20493;-87
2023/06/16 03:54:26;;;;;;;0.57;0.57;;;;;;;15.02;100.00;99611.69;5007738;28;20128;-88
2023/06/16 03:56:52;;;;;;;1.40;1.35;;;;;;;15.03;100.00;99602.06;4990880;28;20729;-88
2023/06/16 03:59:19;;;;;;;1.23;0.95;;;;;;;15.07;100.00;99603.44;4987838;28;20045;-87
2023/06/16 04:01:46;;;;;;;0.73;0.73;;;;;;;15.10;100.00;99618.44;5006747;28;20056;-87
2023/06/16 04:04:12;;;;;;;0.82;0.82;;;;;;;15.02;100.00;99606.09;4991725;28;20029;-87
2023/06/16 04:06:40;;;;;;;1.30;1.20;;;;;;;15.14;100.00;99624.63;4990433;28;20512;-87
2023/06/16 04:09:05;;;;;;;0.43;0.43;;;;;;;15.12;100.00;99621.56;5010646;28;20517;-87
2023/06/16 04:11:33;;;;;;;1.98;1.25;;;;;;;15.18;100.00;99626.00;5005693;28;20037;-86
2023/06/16 04:13:58;;;;;;;0.93;0.60;;;;;;;15.14;100.00;99614.22;5012857;28;20030;-87
2023/06/16 04:16:24;;;;;;;2.08;0.95;;;;;;;15.21;100.00;99624.25;4991020;28;20370;-86
2023/06/16 04:18:50;;;;;;;0.45;0.38;;;;;;;15.20;100.00;99606.75;5005728;28;20435;-86
2023/06/16 04:21:16;;;;;;;1.02;0.98;;;;;;;15.24;100.00;99612.13;5006898;28;20034;-87
2023/06/16 04:23:42;;;;;;;1.40;1.30;;;;;;;15.21;100.00;99607.50;4990505;28;20034;-87
2023/06/16 04:26:10;;;;;;;2.05;0.90;;;;;;;15.22;100.00;99597.88;5005122;28;20029;-88
2023/06/16 04:28:43;;;;;;;0.10;0.10;;;;;;;15.28;100.00;99619.09;4986978;28;20029;-88
2023/06/16 04:31:12;;;;;;;2.65;0.73;;;;;;;15.29;100.00;99614.25;4986771;28;20042;-87
2023/06/16 04:33:41;;;;;;;1.25;1.15;;;;;;;15.31;100.00;99606.16;4986248;28;20060;-88
2023/06/16 04:36:09;;;;;;;0.28;0.28;;;;;;;15.21;100.00;99596.31;4975679;28;20084;-86
2023/06/16 04:38:34;;;;;;;2.30;0.80;;;;;;;15.35;100.00;99612.34;4972891;28;20064;-88
2023/06/16 04:41:01;;;;;;;0.50;0.50;;;;;;;15.33;100.00;99607.22;5007476;28;20045;-88
2023/06/16 04:43:28;;;;;;;1.60;0.82;;;;;;;15.34;100.00;99608.00;4978367;28;20030;-87
2023/06/16 04:45:54;;;;;;;0.28;0.28;;;;;;;15.28;100.00;99595.97;4987839;28;20034;-88
2023/06/16 04:48:20;;;;;;;0.55;0.55;;;;;;;15.38;100.00;99605.78;5004395;28;20040;-88
2023/06/16 04:50:46;;;;;;;0.60;0.60;;;;;;;15.39;100.00;99610.91;5003303;28;20058;-88
2023/06/16 04:53:15;;;;;;;1.98;1.48;;;;;;;15.40;100.00;99601.28;4990527;28;20030;-87
2023/06/16 04:55:41;;;;;;;0.80;0.80;;;;;;;15.34;100.00;99594.03;5001947;28;20398;-88
2023/06/16 04:58:08;;;;;;;0.63;0.63;;;;;;;15.37;100.00;99593.84;5007805;28;20540;-87
2023/06/16 05:00:33;;;;;;;0.55;0.55;;;;;;;15.40;100.00;99603.28;4988597;28;20121;-87
2023/06/16 05:02:59;;;;;;;0.75;0.75;;;;;;;15.41;100.00;99605.59;5008071;28;20042;-86
2023/06/16 05:05:26;;;;;;;3.63;0.85;;;;;;;15.26;100.00;99581.69;4989726;28;20121;-87
2023/06/16 05:07:51;;;;;;;0.73;0.73;;;;;;;15.39;100.00;99593.38;5007565;28;20022;-86
2023/06/16 05:10:17;;;;;;;1.05;0.85;;;;;;;15.48;100.00;99598.88;5007282;28;20108;-87
2023/06/16 05:12:43;;;;;;;1.65;0.73;;;;;;;15.43;100.00;99593.94;4970342;28;20120;-87
2023/06/16 05:15:09;;;;;;;1.00;0.85;;;;;;;15.50;100.00;99595.59;4989589;28;20034;-88
2023/06/16 05:17:37;;;;;;;1.70;1.45;;;;;;;15.48;100.00;99609.28;5002266;28;20098;-89
2023/06/16 05:20:03;;;;;;;1.38;0.68;;;;;;;15.40;100.00;99597.72;4970129;28;20100;-87
2023/06/16 05:22:30;;;;;;;0.73;0.57;;;;;;;15.45;100.00;99605.41;5002809;28;20037;-86
2023/06/16 05:24:57;;;;;;;1.40;1.30;;;;;;;15.44;100.00;99609.47;5004177;28;20268;-87
2023/06/16 05:27:24;;;;;;;0.32;0.30;;;;;;;15.40;100.00;99609.66;4988639;28;20030;-87
2023/06/16 05:29:51;;;;;;;1.08;1.00;;;;;;;15.35;100.00;99589.97;4988754;28;20079;-87
2023/06/16 05:32:19;;;;;;;2.95;1.02;;;;;;;15.38;100.00;99605.78;4975880;28;20104;-86
2023/06/16 05:34:49;;;;;;;0.60;0.60;;;;;;;15.34;100.00;99605.19;4998052;28;20390;-86
2023/06/16 05:37:15;;;;;;;0.60;0.60;;;;;;;15.33;100.00;99598.84;4988893;28;20044;-86
2023/06/16 05:39:48;;;;;;;0.10;0.10;;;;;;;15.42;100.00;99617.56;4987538;28;20153;-86
2023/06/16 05:42:14;;;;;;;0.57;0.57;;;;;;;15.38;100.00;99614.94;4976304;28;20049;-86
2023/06/16 05:44:41;;;;;;;0.10;0.10;;;;;;;15.49;100.00;99622.00;4990862;28;20115;-89
2023/06/16 05:47:08;;;;;;;0.82;0.70;;;;;;;15.74;100.00;99627.03;4973215;28;20109;-87
2023/06/16 05:49:35;;;;;;;1.95;1.15;;;;;;;15.81;100.00;99610.66;4990500;28;20444;-87
2023/06/16 05:52:02;;;;;;;0.55;0.55;;;;;;;15.83;100.00;99622.13;4992390;28;20108;-87
2023/06/16 05:54:28;;;;;;;1.13;0.93;;;;;;;15.75;100.00;99612.59;5008497;28;20446;-88
2023/06/16 05:56:55;;;;;;;0.93;0.93;;;;;;;15.72;100.00;99619.16;4974280;28;20025;-85
2023/06/16 05:59:21;;;;;;;0.77;0.50;;;;;;;15.77;100.00;99632.44;5005592;28;20029;-85
2023/06/16 06:01:49;;;;;;;0.38;0.38;;;;;;;15.97;100.00;99640.16;4992308;28;20038;-85
2023/06/16 06:04:15;;;;;;;1.17;1.02;;;;;;;16.27;100.00;99629.69;4972926;28;20124;-85
2023/06/16 06:06:41;;;;;;;0.88;0.60;;;;;;;16.45;100.00;99646.25;5010892;28;20108;-85
2023/06/16 06:09:06;;;;;;;0.70;0.70;;;;;;;16.43;100.00;99636.78;5009285;28;20038;-85
2023/06/16 06:11:32;;;;;;;1.67;0.95;;;;;;;16.55;100.00;99644.88;5008319;28;20092;-85
2023/06/16 06:13:58;;;;;;;1.40;0.98;;;;;;;16.53;100.00;99630.59;5007802;28;20046;-85
2023/06/16 06:16:26;;;;;;;1.52;0.82;;;;;;;16.84;100.00;99638.44;5006649;28;20099;-85
2023/06/16 06:18:51;;;;;;;0.75;0.75;;;;;;;16.96;100.00;99644.94;5004679;28;20038;-85
2023/06/16 06:21:17;;;;;;;1.08;0.80;;;;;;;16.79;100.00;99648.28;4982914;28;20041;-86
2023/06/16 06:23:43;;;;;;;0.75;0.47;;;;;;;16.72;100.00;99637.50;5008679;28;20046;-85
2023/06/16 06:26:09;;;;;;;1.13;1.02;;;;;;;16.66;100.00;99645.06;5008090;28;20030;-85
2023/06/16 06:28:35;;;;;;;0.80;0.60;;;;;;;16.64;100.00;99635.59;5010309;28;20034;-85
2023/06/16 06:31:01;;;;;;;0.85;0.57;;;;;;;16.85;100.00;99631.56;5008812;28;20088;-85
2023/06/16 06:33:27;;;;;;;0.73;0.73;;;;;;;17.10;100.00;99638.50;4991735;28;20445;-85
2023/06/16 06:35:53;;;;;;;0.47;0.47;;;;;;;17.22;100.00;99634.56;5008649;28;20038;-85
2023/06/16 06:38:19;;;;;;;1.30;1.20;;;;;;;17.30;100.00;99632.09;5016442;28;20045;-85
2023/06/16 06:40:47;;;;;;;0.32;0.30;;;;;;;17.68;100.00;99640.16;5008878;28;20120;-86
2023/06/16 06:43:13;;;;;;;0.28;0.28;;;;;;;17.91;100.00;99632.75;5009914;28;20042;-85
2023/06/16 06:45:47;;;;;;;0.73;0.32;;;;;;;18.18;100.00;99629.38;5008721;28;20080;-85
2023/06/16 06:48:13;;;;;;;1.00;0.93;;;;;;;18.19;100.00;99630.94;4991761;28;20065;-85
2023/06/16 06:50:40;;;;;;;0.10;0.10;;;;;;;18.19;100.00;99628.13;4985091;28;20026;-84
2023/06/16 06:53:06;;;;;;;0.57;0.57;;;;;;;18.46;100.00;99627.53;5008709;28;20034;-85
2023/06/16 06:55:32;;;;;;;1.10;0.70;;;;;;;18.69;100.00;99627.69;5010257;28;20374;-84
2023/06/16 06:57:57;;;;;;;2.25;0.68;;;;;;;18.95;99.02;99611.47;5008412;28;20042;-85
2023/06/16 07:00:23;;;;;;;0.68;0.57;;;;;;;19.24;97.26;99633.56;5010050;28;20034;-86
2023/06/16 07:02:49;;;;;;;0.73;0.60;;;;;;;19.33;94.45;99636.16;4995097;28;20571;-85
2023/06/16 07:05:15;;;;;;;1.13;1.02;;;;;;;19.46;94.47;99639.28;5009738;28;20034;-84
2023/06/16 07:07:41;;;;;;;1.05;0.85;;;;;;;19.75;91.46;99643.69;5007941;28;20028;-85
2023/06/16 07:10:07;;;;;;;0.77;0.50;;;;;;;19.94;90.36;99636.28;5010008;28;20046;-85
2023/06/16 07:12:32;;;;;;;1.13;0.88;;;;;;;20.09;87.73;99621.97;4991011;28;20036;-85
2023/06/16 07:14:58;;;;;;;0.10;0.10;;;;;;;20.36;87.41;99614.78;5009745;28;20412;-85
2023/06/16 07:17:23;;;;;;;1.25;0.80;;;;;;;20.38;84.06;99627.06;5009810;28;20211;-84
2023/06/16 07:19:49;;;;;;;1.60;1.15;;;;;;;20.57;84.11;99620.91;5009060;28;20037;-85
2023/06/16 07:22:14;;;;;;;0.60;0.52;;;;;;;20.60;82.89;99631.13;5007665;28;20034;-85
2023/06/16 07:24:40;;;;;;;0.68;0.68;;;;;;;20.79;82.06;99629.28;5007778;28;20077;-85
2023/06/16 07:27:06;;;;;;;0.20;0.20;;;;;;;20.93;82.13;99631.03;5008090;28;20427;-85
2023/06/16 07:29:31;;;;;;;0.50;0.50;;;;;;;21.18;79.54;99640.47;4991622;28;20105;-86
2023/06/16 07:31:57;;;;;;;0.55;0.55;;;;;;;21.16;80.06;99626.09;5007584;28;20038;-86
2023/06/16 07:34:23;;;;;;;0.65;0.65;;;;;;;21.34;77.93;99623.47;5007081;28;20093;-86
2023/06/16 07:36:48;;;;;;;1.17;0.98;;;;;;;21.53;76.19;99625.66;5004146;28;20054;-86
2023/06/16 07:39:14;;;;;;;0.80;0.75;;;;;;;21.77;76.14;99625.75;4991291;28;20436;-87
2023/06/16 07:41:39;;;;;;;1.30;0.98;;;;;;;22.00;74.97;99629.22;4991076;28;20038;-87
2023/06/16 07:44:05;;;;;;;0.32;0.32;;;;;;;21.78;74.38;99627.28;5007522;28;20042;-87
2023/06/16 07:46:32;;;;;;;0.30;0.30;;;;;;;22.05;71.55;99620.69;4991141;28;20037;-85
2023/06/16 07:48:58;;;;;;;0.75;0.60;;;;;;;22.13;71.09;99624.47;4990767;28;20042;-85
2023/06/16 07:51:25;;;;;;;0.55;0.52;;;;;;;22.36;70.82;99627.88;5008885;28;20450;-86
2023/06/16 07:53:51;;;;;;;1.10;0.77;;;;;;;22.50;68.82;99628.75;5009138;28;20042;-86
2023/06/16 07:56:18;;;;;;;0.50;0.50;;;;;;;22.69;67.77;99632.41;4990965;28;20159;-86
2023/06/16 07:58:44;;;;;;;1.00;0.90;;;;;;;22.83;67.94;99631.25;4992942;28;20042;-86
2023/06/16 08:01:10;;;;;;;1.02;0.70;;;;;;;23.07;67.63;99611.41;4967151;28;20092;-86
2023/06/16 08:03:36;;;;;;;0.30;0.30;;;;;;;23.22;63.12;99616.63;4974348;28;20033;-85
2023/06/16 08:06:01;;;;;;;0.30;0.30;;;;;;;23.10;61.61;99610.34;5005942;28;20073;-84
2023/06/16 08:08:27;;;;;;;0.70;0.68;;;;;;;23.31;61.48;99623.97;4989004;28;20030;-85
2023/06/16 08:10:57;;;;;;;2.05;0.70;;;;;;;23.22;60.75;99616.63;4990981;28;20026;-84
2023/06/16 08:13:23;;;;;;;0.60;0.55;;;;;;;23.48;63.41;99622.47;5006546;28;20069;-85
2023/06/16 08:15:49;;;;;;;0.35;0.35;;;;;;;23.72;62.17;99610.28;4989540;28;20091;-85
2023/06/16 08:18:16;;;;;;;1.30;1.00;;;;;;;23.74;60.24;99616.16;4973976;28;20386;-86
2023/06/16 08:20:42;;;;;;;0.38;0.38;;;;;;;23.79;60.06;99618.13;4990706;28;20049;-86
2023/06/16 08:23:08;;;;;;;0.63;0.60;;;;;;;23.55;60.01;99615.41;5008076;28;20029;-87
2023/06/16 08:25:33;;;;;;;1.48;0.50;;;;;;;23.62;59.58;99609.13;5006919;28;20573;-86
2023/06/16 08:28:00;;;;;;;0.65;0.65;;;;;;;23.59;58.34;99607.38;4989655;28;20508;-86
2023/06/16 08:30:25;;;;;;;0.75;0.75;;;;;;;23.84;58.68;99600.31;5006021;28;20129;-86
2023/06/16 08:32:53;;;;;;;1.27;0.47;;;;;;;24.07;57.77;99604.28;4974433;28;20112;-86
2023/06/16 08:35:18;;;;;;;0.52;0.52;;;;;;;24.28;54.84;99606.53;5007425;28;20092;-86
2023/06/16 08:37:44;;;;;;;0.80;0.75;;;;;;;24.40;55.75;99607.88;4987235;28;20022;-86
2023/06/16 08:40:11;;;;;;;1.00;0.90;;;;;;;24.64;57.40;99607.69;5006963;28;20548;-85
2023/06/16 08:42:37;;;;;;;0.10;0.10;;;;;;;24.58;56.64;99604.97;4974681;28;20049;-86
2023/06/16 08:45:04;;;;;;;10.88;1.13;;;;;;;24.61;48.74;99608.78;5006689;28;20037;-86
2023/06/16 08:47:30;;;;;;;1.02;0.93;;;;;;;24.59;45.21;99608.53;4989957;28;20044;-85
2023/06/16 08:49:56;;;;;;;0.40;0.38;;;;;;;24.74;44.88;99608.78;4989264;28;20492;-85
2023/06/16 08:52:26;;;;;;;0.30;0.30;;;;;;;24.85;44.34;99613.50;5007819;28;20073;-86
2023/06/16 08:54:57;;;;;;;0.40;0.40;;;;;;;24.99;43.40;99612.94;4965200;28;20505;-86
2023/06/16 08:57:23;;;;;;;1.20;0.47;;;;;;;25.05;43.63;99598.63;4990328;28;20129;-86
2023/06/16 08:59:51;;;;;;;1.95;0.52;;;;;;;25.25;44.07;99595.09;5004237;28;20033;-87
2023/06/16 09:07:41;;;;;;;0.75;0.70;;;;;;;25.66;43.27;99602.22;1303734;26;20034;-91
2023/06/16 09:10:09;;;;;;;0.55;0.50;;;;;;;25.96;42.63;99597.59;4996082;28;20390;-91
2023/06/16 09:12:36;;;;;;;1.02;0.40;;;;;;;25.91;41.61;99575.00;4993679;28;20051;-91
2023/06/16 09:15:06;;;;;;;0.43;0.30;;;;;;;25.70;40.68;99583.50;4993791;28;20412;-91
2023/06/16 09:17:33;;;;;;;0.20;0.20;;;;;;;25.75;41.00;99585.47;4997504;28;20049;-91
2023/06/16 09:20:00;;;;;;;0.65;0.60;;;;;;;25.75;40.41;99574.09;4987945;28;20100;-90
2023/06/16 09:22:28;;;;;;;0.90;0.63;;;;;;;25.89;39.48;99600.34;5005369;28;20564;-91
2023/06/16 09:25:06;;;;;;;0.70;0.65;;;;;;;25.91;38.05;99615.56;4996792;28;20033;-89
2023/06/16 09:27:43;;;;;;;0.52;0.52;;;;;;;26.03;38.91;99603.91;4998840;28;20507;-89
2023/06/16 09:30:10;;;;;;;0.82;0.50;;;;;;;26.10;39.15;99591.84;5028631;28;20048;-91
2023/06/16 09:32:37;;;;;;;0.25;0.25;;;;;;;26.28;37.71;99596.56;5013896;28;20048;-91
2023/06/16 09:35:23;;;;;;;0.80;0.77;;;;;;;26.27;37.30;99606.41;5027038;28;20046;-91
2023/06/16 09:37:50;;;;;;;2.25;1.15;;;;;;;26.23;37.58;99594.63;5027478;28;20045;-90
2023/06/16 09:40:17;;;;;;;2.08;1.48;;;;;;;26.16;38.41;99561.19;5015930;28;20057;-96
2023/06/16 09:42:44;;;;;;;0.70;0.70;;;;;;;26.34;38.12;99563.06;5002540;28;20092;-96
2023/06/16 09:45:13;;;;;;;1.65;0.90;;;;;;;26.77;38.09;99594.44;5006059;28;20025;-95
2023/06/16 09:47:44;;;;;;;0.75;0.75;;;;;;;26.60;37.80;99545.78;5001727;28;20036;-96
2023/06/16 09:50:23;;;;;;;0.50;0.45;;;;;;;26.92;37.97;99595.88;5007821;28;20042;-95
2023/06/16 09:52:49;;;;;;;1.33;1.23;;;;;;;26.34;36.41;99557.38;4986999;28;20550;-96
2023/06/16 09:55:15;;;;;;;0.40;0.40;;;;;;;26.30;37.43;99565.50;4992739;28;20045;-96
2023/06/16 09:57:43;;;;;;;0.68;0.65;;;;;;;26.31;37.19;99549.97;5014079;28;20033;-96
2023/06/16 10:00:16;;;;;;;0.65;0.63;;;;;;;26.31;35.16;99561.34;4999416;28;20133;-96
2023/06/16 10:02:47;;;;;;;0.77;0.77;;;;;;;26.37;35.34;99548.47;5015639;28;20044;-95
2023/06/16 10:05:18;;;;;;;0.17;0.17;;;;;;;26.82;35.85;99570.75;4986318;28;20073;-95
2023/06/16 10:07:56;;;;;;;0.40;0.40;;;;;;;26.86;35.38;99564.72;5018573;28;20101;-95
2023/06/16 10:10:25;;;;;;;0.60;0.55;;;;;;;26.81;35.56;99557.84;4991303;28;20041;-96
2023/06/16 10:12:53;;;;;;;1.10;0.75;;;;;;;27.42;35.46;99592.28;4992491;28;20094;-96
2023/06/16 10:15:24;;;;;;;2.05;1.15;;;;;;;27.10;33.94;99566.34;5003253;28;20022;-96
2023/06/16 10:17:50;;;;;;;0.30;0.30;;;;;;;27.11;35.42;99553.63;4987905;28;20047;-95
2023/06/16 10:20:26;;;;;;;1.30;1.20;;;;;;;27.03;35.27;99552.84;4993889;28;20133;-95
2023/06/16 10:22:51;;;;;;;1.13;0.93;;;;;;;26.45;34.82;99559.91;4990980;28;20046;-95
2023/06/16 10:25:18;;;;;;;1.15;0.63;;;;;;;26.00;36.15;99569.56;4987064;28;20183;-96
2023/06/16 10:27:45;;;;;;;0.77;0.77;;;;;;;25.64;37.24;99540.28;5003601;28;20034;-95
2023/06/16 10:30:43;;;;;;;4.85;0.68;;;;;;;26.25;37.45;99549.34;5026844;28;20105;-95
2023/06/16 10:33:21;;;;;;;0.50;0.50;;;;;;;26.70;35.39;99541.09;5002083;28;20030;-96
2023/06/16 10:35:52;;;;;;;0.68;0.68;;;;;;;27.13;35.78;99588.78;5010180;28;20030;-96
2023/06/16 10:38:24;;;;;;;0.80;0.68;;;;;;;26.83;35.14;99555.22;5028749;28;20064;-96
2023/06/16 10:41:07;;;;;;;0.60;0.52;;;;;;;26.96;35.06;99573.50;5027226;28;20072;-96
2023/06/16 11:10:50;;;;;;;0.85;0.70;;;;;;;27.68;33.85;99574.16;1456149;26;20527;-88
2023/06/16 11:13:17;;;;;;;0.60;0.60;;;;;;;27.64;33.75;99579.47;5003939;28;20038;-89
2023/06/16 11:15:43;;;;;;;1.17;0.75;;;;;;;27.71;35.16;99573.78;5009538;28;20409;-91
2023/06/16 11:18:09;;;;;;;0.52;0.35;;;;;;;27.31;34.62;99578.38;4989449;28;20030;-90
2023/06/16 11:20:35;;;;;;;0.75;0.60;;;;;;;27.39;33.95;99576.31;4990663;28;20029;-96
2023/06/16 11:23:04;;;;;;;1.85;1.63;;;;;;;27.33;34.07;99572.91;4990669;28;20039;-90
2023/06/16 11:25:30;;;;;;;0.55;0.55;;;;;;;27.14;34.59;99578.13;5011560;28;20034;-96
2023/06/16 11:27:59;;;;;;;0.73;0.63;;;;;;;27.32;32.90;99559.97;5002863;28;20175;-96
2023/06/16 11:30:25;;;;;;;0.22;0.22;;;;;;;27.42;33.55;99560.22;4993326;28;20025;-89
2023/06/16 11:32:52;;;;;;;0.15;0.15;;;;;;;27.56;34.25;99553.81;4997927;28;20116;-90
2023/06/16 11:35:18;;;;;;;1.55;0.98;;;;;;;27.88;33.09;99555.38;4995870;28;20445;-94
2023/06/16 11:37:49;;;;;;;0.50;0.50;;;;;;;27.89;33.38;99559.75;5006120;28;20472;-95
2023/06/16 11:40:25;;;;;;;0.30;0.30;;;;;;;27.76;34.43;99552.88;5010946;28;20073;-96
2023/06/16 11:42:59;;;;;;;0.75;0.73;;;;;;;28.06;33.92;99540.75;5010222;28;20045;-96
2023/06/16 11:45:37;;;;;;;0.82;0.70;;;;;;;28.24;33.46;99544.56;5011882;28;20038;-95
2023/06/16 11:48:04;;;;;;;0.45;0.30;;;;;;;28.45;33.92;99547.94;5021976;28;20053;-94
2023/06/16 11:50:31;;;;;;;0.75;0.47;;;;;;;28.46;33.25;99543.00;5023225;28;20041;-96
2023/06/16 11:52:56;;;;;;;0.45;0.45;;;;;;;28.46;33.17;99543.78;5012356;28;20022;-96
2023/06/16 11:55:23;;;;;;;0.52;0.43;;;;;;;28.17;32.17;99528.22;5020887;28;20030;-96
2023/06/16 11:57:49;;;;;;;0.82;0.70;;;;;;;28.18;33.07;99535.44;5015424;28;20072;-95
2023/06/16 12:17:27;;;;;;;1.45;0.60;;;;;;;28.46;32.82;99543.00;1090415;23;21611;-96
2023/06/16 12:19:53;;;;;;;0.70;0.68;;;;;;;27.86;33.30;99492.47;4953677;28;20121;-96
2023/06/16 12:22:20;;;;;;;0.30;0.30;;;;;;;27.99;34.63;99506.50;4936738;28;20146;-96